Time;durP1;ratioP1;P1;durP2;ratioP2;P2;SDS_P1;SDS_P2;PMS_P1;PMS_P2;Temp;Humidity;BMP_temperature;BMP_pressure;BME280_temperature;BME280_humidity;BME280_pressure;Samples;Min_cycle;Max_cycle;Signal;HPM_P1;HPM_P2
2022/08/30 00:03:23;;;;;;;4.60;3.67;;;15.10;99.90;;;14.96;100.00;101590.69;4931968;29;20476;-74
2022/08/30 00:05:53;;;;;;;6.30;4.00;;;15.00;99.90;;;14.97;100.00;101588.78;4931740;29;20954;-73
2022/08/30 00:08:24;;;;;;;4.60;3.50;;;15.00;99.90;;;14.97;100.00;101596.97;4936916;29;20548;-73
2022/08/30 00:10:53;;;;;;;4.77;3.77;;;15.00;99.90;;;14.99;100.00;101595.72;4947624;23;20933;-71
2022/08/30 00:13:24;;;;;;;5.07;4.47;;;15.00;99.90;;;14.98;100.00;101595.94;4960277;28;20467;-70
2022/08/30 00:15:53;;;;;;;14.53;4.67;;;15.00;99.90;;;14.97;100.00;101597.81;4928221;29;20527;-72
2022/08/30 00:18:24;;;;;;;6.10;4.47;;;15.00;99.90;;;14.90;100.00;101586.13;4938962;29;20859;-71
2022/08/30 00:20:54;;;;;;;4.63;3.63;;;14.90;99.90;;;14.83;100.00;101596.19;4935537;29;20885;-72
2022/08/30 00:23:24;;;;;;;5.97;4.00;;;14.90;99.90;;;14.78;100.00;101596.81;4936995;29;20446;-71
2022/08/30 00:25:53;;;;;;;5.37;4.53;;;14.80;99.90;;;14.73;100.00;101595.78;4936954;29;20447;-71
2022/08/30 00:28:22;;;;;;;4.57;4.03;;;14.80;99.90;;;14.90;100.00;101598.91;4920191;29;20524;-72
2022/08/30 00:30:52;;;;;;;3.90;3.50;;;14.80;99.90;;;15.03;100.00;101605.16;4924202;29;20420;-71
2022/08/30 00:33:24;;;;;;;6.00;5.40;;;14.90;99.90;;;14.91;100.00;101604.13;4931424;29;20468;-72
2022/08/30 00:35:53;;;;;;;4.80;4.40;;;14.90;99.90;;;15.02;100.00;101600.75;4925122;29;20446;-72
2022/08/30 00:38:23;;;;;;;5.77;4.17;;;14.90;99.90;;;15.01;100.00;101607.22;4933720;29;20447;-72
2022/08/30 00:40:53;;;;;;;5.03;4.63;;;15.00;99.90;;;14.89;100.00;101603.50;4931014;29;20963;-72
2022/08/30 00:43:28;;;;;;;5.40;4.87;;;14.90;99.90;;;14.87;100.00;101597.41;4924648;29;20439;-72
2022/08/30 00:45:58;;;;;;;5.90;4.40;;;14.90;99.90;;;14.90;100.00;101607.91;4941329;28;20498;-71
2022/08/30 00:48:29;;;;;;;6.00;4.80;;;14.90;99.90;;;14.78;100.00;101599.53;4936317;29;20935;-72
2022/08/30 00:51:05;;;;;;;4.37;3.97;;;14.80;99.90;;;14.87;100.00;101597.41;4931312;29;20812;-71
2022/08/30 00:53:39;;;;;;;10.77;5.33;;;14.80;99.90;;;14.82;100.00;101605.41;4931549;29;20533;-71
2022/08/30 00:56:08;;;;;;;4.83;4.33;;;14.80;99.90;;;14.94;100.00;101608.31;4931679;29;20840;-72
2022/08/30 00:58:44;;;;;;;4.80;4.23;;;14.90;99.90;;;15.00;100.00;101608.31;4929818;29;20457;-72
2022/08/30 01:01:14;;;;;;;6.67;4.83;;;14.90;99.90;;;14.91;100.00;101604.13;4927588;29;20946;-71
2022/08/30 01:03:46;;;;;;;7.10;5.53;;;14.90;99.90;;;14.78;100.00;101615.06;4928399;29;20443;-72
2022/08/30 01:06:16;;;;;;;5.60;4.60;;;14.80;99.90;;;14.87;100.00;101615.66;4932011;29;20474;-72
2022/08/30 01:08:47;;;;;;;4.67;4.27;;;14.80;99.90;;;14.99;100.00;101617.53;4928306;29;20441;-71
2022/08/30 01:11:24;;;;;;;8.67;5.80;;;14.90;99.90;;;15.04;100.00;101615.00;4943796;28;20459;-71
2022/08/30 01:13:55;;;;;;;5.57;4.97;;;14.90;99.90;;;15.05;100.00;101616.69;4926886;29;20613;-71
2022/08/30 01:16:25;;;;;;;5.30;4.00;;;14.90;99.90;;;14.83;100.00;101617.97;4922332;29;20750;-72
2022/08/30 01:18:59;;;;;;;5.87;4.73;;;14.90;99.90;;;14.69;100.00;101614.44;4921535;28;20419;-72
2022/08/30 01:21:39;;;;;;;6.27;5.30;;;14.70;99.90;;;14.60;100.00;101612.16;4934131;29;20414;-72
2022/08/30 01:24:10;;;;;;;8.30;5.23;;;14.70;99.90;;;14.57;100.00;101618.03;4930931;29;20508;-72
2022/08/30 01:26:40;;;;;;;10.37;4.97;;;14.60;99.90;;;14.49;100.00;101610.06;4930829;29;20453;-71
2022/08/30 01:29:17;;;;;;;7.13;5.53;;;14.50;99.90;;;14.55;100.00;101614.66;4915936;29;20447;-72
2022/08/30 01:31:47;;;;;;;5.83;5.23;;;14.50;99.90;;;14.49;100.00;101615.50;4924336;29;20457;-72
2022/08/30 01:34:17;;;;;;;6.57;5.13;;;14.50;99.90;;;14.47;100.00;101617.63;4924834;29;20468;-72
2022/08/30 01:36:49;;;;;;;6.33;4.40;;;14.50;99.90;;;14.60;100.00;101623.03;4926477;29;20857;-72
2022/08/30 01:39:19;;;;;;;7.20;6.30;;;14.50;99.90;;;14.50;100.00;101628.06;4923469;29;20442;-72
2022/08/30 01:41:49;;;;;;;11.33;8.03;;;14.50;99.90;;;14.58;100.00;101625.97;4929667;29;20468;-72
2022/08/30 01:44:18;;;;;;;6.93;5.27;;;14.50;99.90;;;14.67;100.00;101611.06;4925739;29;20929;-71
2022/08/30 01:46:48;;;;;;;5.77;5.13;;;14.60;99.90;;;14.61;100.00;101624.72;4929399;29;20482;-71
2022/08/30 01:49:20;;;;;;;9.60;5.83;;;14.50;99.90;;;14.62;100.00;101615.50;4928258;29;20946;-72
2022/08/30 01:51:55;;;;;;;6.87;5.73;;;14.60;99.90;;;14.49;100.00;101615.50;4927152;29;20412;-72
2022/08/30 01:54:32;;;;;;;6.50;5.43;;;14.50;99.90;;;14.48;100.00;101609.22;4920120;29;20527;-71
2022/08/30 01:57:08;;;;;;;7.60;6.30;;;14.50;99.90;;;14.65;100.00;101618.66;4934939;29;20457;-72
2022/08/30 01:59:41;;;;;;;6.33;5.73;;;14.50;99.90;;;14.60;100.00;101612.16;4931461;29;20487;-71
2022/08/30 02:02:11;;;;;;;8.43;6.63;;;14.60;99.90;;;14.55;100.00;101609.22;4926994;29;20426;-71
2022/08/30 02:04:40;;;;;;;9.53;6.70;;;14.50;99.90;;;14.49;100.00;101610.06;4928695;29;20461;-72
2022/08/30 02:07:09;;;;;;;7.23;5.47;;;14.50;99.90;;;14.55;100.00;101609.22;4928160;29;20889;-72
2022/08/30 02:09:40;;;;;;;6.97;6.27;;;14.50;99.90;;;14.52;100.00;101604.22;4930412;29;20414;-70
2022/08/30 02:12:11;;;;;;;9.40;6.67;;;14.50;99.90;;;14.37;100.00;101607.16;4927951;29;20867;-71
2022/08/30 02:14:40;;;;;;;7.80;5.30;;;14.40;99.90;;;14.26;100.00;101605.84;4937962;28;20440;-71
2022/08/30 02:17:13;;;;;;;7.30;5.30;;;14.30;99.90;;;14.22;100.00;101604.59;4918914;29;20479;-71
2022/08/30 02:19:42;;;;;;;8.73;6.13;;;14.30;99.90;;;14.22;100.00;101607.31;4927637;29;20450;-71
2022/08/30 02:22:12;;;;;;;10.23;6.67;;;14.30;99.90;;;14.42;100.00;101604.63;4926429;29;20863;-71
2022/08/30 02:24:42;;;;;;;8.57;6.30;;;14.30;99.90;;;14.34;100.00;101608.34;4919096;29;20477;-71
2022/08/30 02:27:11;;;;;;;6.43;5.57;;;14.30;99.90;;;14.28;100.00;101608.38;4933592;29;20473;-72
2022/08/30 02:29:40;;;;;;;9.07;6.10;;;14.30;99.90;;;14.21;100.00;101610.25;4925563;29;20930;-70
2022/08/30 02:32:09;;;;;;;7.80;7.00;;;14.20;99.90;;;14.29;100.00;101608.16;4934783;29;20448;-71
2022/08/30 02:34:39;;;;;;;8.73;6.20;;;14.30;99.90;;;14.15;100.00;101601.03;4927836;29;20456;-71
2022/08/30 02:37:08;;;;;;;10.27;6.93;;;14.20;99.90;;;14.17;100.00;101607.09;4926788;29;20791;-72
2022/08/30 02:39:37;;;;;;;9.93;8.30;;;14.20;99.90;;;14.08;100.00;101602.06;4935087;29;20435;-71
2022/08/30 02:42:07;;;;;;;8.43;6.63;;;14.10;99.90;;;14.11;100.00;101599.75;4932634;29;20496;-72
2022/08/30 02:44:37;;;;;;;12.80;10.00;;;14.10;99.90;;;14.22;100.00;101601.88;4918986;29;20890;-71
2022/08/30 02:47:06;;;;;;;11.43;8.23;;;14.20;99.90;;;14.23;100.00;101603.53;4929757;29;20476;-71
2022/08/30 02:49:36;;;;;;;10.30;7.13;;;14.20;99.90;;;14.19;100.00;101604.16;4927896;29;20415;-72
2022/08/30 02:52:06;;;;;;;11.03;7.27;;;14.20;99.90;;;14.26;100.00;101605.84;4924981;29;20547;-71
2022/08/30 02:54:35;;;;;;;8.47;7.10;;;14.20;99.90;;;14.26;100.00;101611.28;4929839;29;20800;-71
2022/08/30 02:57:07;;;;;;;9.33;7.00;;;14.20;99.90;;;14.12;100.00;101606.91;4927679;29;20926;-71
2022/08/30 02:59:48;;;;;;;8.43;6.90;;;14.10;99.90;;;14.07;100.00;101612.13;4919024;29;20445;-71
2022/08/30 03:02:17;;;;;;;8.90;6.50;;;14.10;99.90;;;14.02;100.00;101601.03;4928267;29;20437;-71
2022/08/30 03:04:46;;;;;;;10.50;8.50;;;14.00;99.90;;;13.96;100.00;101598.28;4932522;29;20468;-71
2022/08/30 03:07:16;;;;;;;9.50;7.20;;;14.00;99.90;;;13.95;100.00;101602.88;4923010;29;20504;-71
2022/08/30 03:09:45;;;;;;;9.90;7.30;;;14.00;99.90;;;14.01;100.00;101596.63;4925433;29;20969;-72
2022/08/30 03:12:16;;;;;;;9.83;7.53;;;14.00;99.90;;;13.93;100.00;101599.53;4926552;29;20920;-72
2022/08/30 03:14:45;;;;;;;10.53;6.73;;;14.00;99.90;;;13.90;100.00;101600.78;4928972;29;21020;-72
2022/08/30 03:17:15;;;;;;;9.23;7.50;;;13.90;99.90;;;13.99;100.00;101609.56;4935479;29;20453;-71
2022/08/30 03:19:46;;;;;;;12.43;8.20;;;13.90;99.90;;;14.14;100.00;101606.66;4931815;29;20423;-72
2022/08/30 03:22:15;;;;;;;10.40;8.37;;;14.00;99.90;;;14.01;100.00;101604.78;4938763;29;20522;-72
2022/08/30 03:24:45;;;;;;;10.27;8.63;;;14.00;99.90;;;14.05;100.00;101602.47;4928137;29;20471;-71
2022/08/30 03:27:15;;;;;;;9.37;7.67;;;14.00;99.90;;;14.01;100.00;101602.06;4924815;29;20895;-71
2022/08/30 03:29:44;;;;;;;8.73;7.83;;;14.00;99.90;;;14.01;100.00;101602.06;4943896;28;20448;-71
2022/08/30 03:32:14;;;;;;;11.00;8.50;;;14.00;99.90;;;13.92;100.00;101608.75;4916920;29;20495;-71
2022/08/30 03:34:43;;;;;;;9.90;7.33;;;13.90;99.90;;;14.00;100.00;101605.81;4936709;29;20435;-72
2022/08/30 03:37:12;;;;;;;9.47;7.37;;;13.90;99.90;;;14.00;100.00;101608.53;4930321;29;20425;-72
2022/08/30 03:39:41;;;;;;;10.43;8.13;;;14.00;99.90;;;14.04;100.00;101607.06;4939367;29;20418;-71
2022/08/30 03:42:11;;;;;;;9.10;7.90;;;14.00;99.90;;;14.09;100.00;101610.00;4927218;29;20422;-71
2022/08/30 03:44:41;;;;;;;7.57;6.60;;;14.00;99.90;;;14.10;100.00;101608.97;4927993;29;20476;-71
2022/08/30 03:47:10;;;;;;;9.10;7.40;;;14.00;99.90;;;13.97;100.00;101608.13;4931105;29;20452;-71
2022/08/30 03:49:39;;;;;;;10.10;7.70;;;14.00;99.90;;;14.06;100.00;101615.88;4929930;29;20990;-72
2022/08/30 03:52:08;;;;;;;9.03;6.93;;;14.00;99.90;;;14.04;100.00;101619.88;4928646;29;20422;-72
2022/08/30 03:54:39;;;;;;;8.40;6.93;;;14.00;99.90;;;13.96;100.00;101629.06;4929533;29;20438;-72
2022/08/30 03:57:08;;;;;;;11.13;7.63;;;13.90;99.90;;;13.87;100.00;101624.84;4934901;29;20448;-72
2022/08/30 03:59:46;;;;;;;9.57;7.40;;;13.90;99.90;;;13.87;100.00;101627.56;4934850;29;20488;-71
2022/08/30 04:02:15;;;;;;;13.57;8.70;;;13.80;99.90;;;13.83;100.00;101624.44;4921042;29;20429;-71
2022/08/30 04:04:44;;;;;;;8.47;6.37;;;13.80;99.90;;;13.90;100.00;101628.00;4924772;29;20475;-71
2022/08/30 04:07:14;;;;;;;15.20;8.13;;;13.90;99.90;;;13.89;100.00;101623.59;4926776;29;20445;-71
2022/08/30 04:09:42;;;;;;;12.20;7.90;;;13.90;99.90;;;14.06;100.00;101620.47;4937310;29;20444;-71
2022/08/30 04:12:12;;;;;;;10.93;8.30;;;13.90;99.90;;;14.14;100.00;101628.44;4935614;29;20555;-71
2022/08/30 04:14:47;;;;;;;9.90;7.80;;;14.00;99.90;;;14.04;100.00;101622.59;4928157;29;20492;-71
2022/08/30 04:17:16;;;;;;;12.80;8.37;;;14.00;99.90;;;14.03;100.00;101621.75;4934542;29;20536;-72
2022/08/30 04:19:45;;;;;;;8.67;6.93;;;14.00;99.90;;;14.02;100.00;101630.13;4941253;28;20537;-71
2022/08/30 04:22:14;;;;;;;11.20;8.17;;;14.00;99.90;;;14.05;100.00;101635.13;4931184;28;20422;-71
2022/08/30 04:24:43;;;;;;;8.00;6.77;;;14.00;99.90;;;14.21;100.00;101637.47;4925788;29;20446;-71
2022/08/30 04:27:12;;;;;;;10.33;7.37;;;14.00;99.90;;;14.28;100.00;101630.97;4926865;29;20497;-71
2022/08/30 04:29:42;;;;;;;10.93;7.50;;;14.10;99.90;;;14.10;100.00;101628.03;4952435;28;20471;-71
2022/08/30 04:32:13;;;;;;;10.43;8.37;;;14.00;99.90;;;14.18;100.00;101638.72;4931889;28;20551;-71
2022/08/30 04:34:42;;;;;;;8.10;7.20;;;14.10;99.90;;;14.12;100.00;101631.38;4933207;28;20491;-71
2022/08/30 04:37:11;;;;;;;10.67;6.67;;;14.10;99.90;;;14.24;100.00;101634.31;4932662;29;20455;-71
2022/08/30 04:39:42;;;;;;;11.17;8.57;;;14.10;99.90;;;14.41;100.00;101641.06;4934559;28;20951;-73
2022/08/30 04:42:11;;;;;;;8.30;7.47;;;14.20;99.90;;;14.30;100.00;101639.78;4931442;29;20934;-71
2022/08/30 04:44:40;;;;;;;7.80;6.27;;;14.20;99.90;;;14.27;100.00;101645.66;4932871;29;20451;-71
2022/08/30 04:47:09;;;;;;;8.20;7.10;;;14.20;99.90;;;14.31;100.00;101646.06;4934770;29;20432;-74
2022/08/30 04:49:40;;;;;;;8.03;6.40;;;14.20;99.90;;;14.23;100.00;101638.09;4923930;29;20454;-71
2022/08/30 04:52:09;;;;;;;11.63;6.90;;;14.20;99.90;;;14.34;100.00;101649.19;4926633;29;20986;-71
2022/08/30 04:54:39;;;;;;;8.27;6.93;;;14.20;99.90;;;14.29;100.00;101640.81;4920447;29;20458;-71
2022/08/30 04:57:08;;;;;;;9.63;8.43;;;14.20;99.90;;;14.48;100.00;101651.94;4925941;29;20445;-72
2022/08/30 04:59:38;;;;;;;9.30;7.13;;;14.30;99.90;;;14.60;100.00;101650.28;4919616;29;20431;-70
2022/08/30 05:02:07;;;;;;;8.80;6.50;;;14.40;99.90;;;14.74;100.00;101643.78;4932705;29;20430;-71
2022/08/30 05:05:38;;;;;;;12.40;8.00;;;14.40;99.90;;;14.69;100.00;101646.28;4946103;28;20436;-71
2022/08/30 05:07:33;;;;;;;8.07;6.77;;;14.40;99.90;;;14.87;100.00;101645.63;4920185;29;20416;-71
2022/08/30 05:10:02;;;;;;;9.27;6.17;;;14.50;99.90;;;14.94;100.00;101647.31;4925225;29;20453;-71
2022/08/30 05:12:38;;;;;;;7.80;6.93;;;14.60;99.90;;;14.89;100.00;101654.44;4929558;28;20427;-71
2022/08/30 05:15:09;;;;;;;8.17;6.70;;;14.60;99.90;;;14.89;100.00;101654.44;4946111;28;20451;-72
2022/08/30 05:17:39;;;;;;;9.73;6.50;;;14.70;99.90;;;14.90;100.00;101656.97;4925888;29;20441;-71
2022/08/30 05:20:12;;;;;;;9.23;6.77;;;14.70;99.90;;;14.99;100.00;101655.69;4924011;29;20467;-71
2022/08/30 05:22:48;;;;;;;10.70;6.53;;;14.70;99.90;;;15.01;100.00;101656.28;4926837;29;20819;-71
2022/08/30 05:25:25;;;;;;;8.33;7.47;;;14.80;99.90;;;15.14;100.00;101664.47;4932742;29;20476;-70
2022/08/30 05:27:55;;;;;;;7.50;5.47;;;14.80;99.90;;;15.26;100.00;101671.97;4913975;29;20420;-71
2022/08/30 05:30:27;;;;;;;6.83;6.00;;;14.90;99.90;;;15.49;100.00;101675.06;4931011;29;20423;-71
2022/08/30 05:32:56;;;;;;;6.63;5.93;;;15.10;99.90;;;15.44;100.00;101669.41;4927529;29;20449;-71
2022/08/30 05:35:27;;;;;;;6.97;5.83;;;15.10;99.90;;;15.44;100.00;101669.41;4926473;29;20453;-71
2022/08/30 05:37:56;;;;;;;7.90;6.63;;;15.20;99.90;;;15.53;100.00;101669.00;4919758;29;20441;-71
2022/08/30 05:40:26;;;;;;;7.63;6.83;;;15.20;99.90;;;15.74;100.00;101670.56;4931522;29;20961;-71
2022/08/30 05:42:56;;;;;;;8.77;6.77;;;15.30;99.90;;;15.90;99.36;101675.50;4937496;28;20443;-70
2022/08/30 05:45:25;;;;;;;10.20;7.50;;;15.50;99.90;;;15.98;98.15;101667.06;4926491;29;21046;-71
2022/08/30 05:47:55;;;;;;;9.60;7.40;;;15.60;99.90;;;16.09;97.66;101674.56;4921062;29;20454;-70
2022/08/30 05:50:24;;;;;;;7.67;6.50;;;15.70;99.90;;;16.28;96.55;101674.66;4930802;29;20503;-71
2022/08/30 05:52:54;;;;;;;9.70;7.83;;;15.80;99.90;;;16.23;96.44;101669.00;4934597;29;20860;-71
2022/08/30 05:55:23;;;;;;;8.10;7.30;;;15.80;99.90;;;16.28;96.56;101674.66;4926243;29;20793;-72
2022/08/30 05:57:53;;;;;;;8.90;7.00;;;15.90;99.90;;;16.32;95.96;101667.69;4928516;29;20423;-71
2022/08/30 06:00:22;;;;;;;7.73;6.93;;;15.90;99.90;;;16.42;95.56;101677.06;4933127;29;20448;-71
2022/08/30 06:02:54;;;;;;;7.60;6.83;;;16.00;99.90;;;16.49;95.08;101674.28;4938456;29;20421;-71
2022/08/30 06:05:23;;;;;;;7.33;6.53;;;16.00;99.90;;;16.65;94.37;101673.78;4952524;28;21167;-71
2022/08/30 06:07:55;;;;;;;16.27;10.80;;;16.20;99.90;;;16.66;94.23;101680.03;4936171;29;20472;-71
2022/08/30 06:10:24;;;;;;;10.43;7.40;;;16.20;99.90;;;16.68;93.70;101684.25;4928110;29;20468;-71
2022/08/30 06:12:53;;;;;;;9.30;6.13;;;16.30;99.90;;;16.73;93.78;101689.88;4968701;23;20494;-71
2022/08/30 06:15:22;;;;;;;9.23;7.57;;;16.30;99.90;;;16.80;93.69;101687.91;4935331;29;20802;-71
2022/08/30 06:17:51;;;;;;;8.30;6.50;;;16.40;99.90;;;16.98;92.89;101678.09;4932995;29;20436;-71
2022/08/30 06:20:20;;;;;;;9.73;8.03;;;16.50;99.90;;;17.06;92.89;101681.38;4932257;29;20455;-72
2022/08/30 06:22:49;;;;;;;10.10;7.90;;;16.60;99.90;;;17.22;92.12;101682.69;4936212;29;20426;-71
2022/08/30 06:25:20;;;;;;;10.23;8.07;;;16.70;99.90;;;17.37;91.05;101688.63;4939031;29;20482;-71
2022/08/30 06:27:49;;;;;;;7.67;6.83;;;16.90;99.90;;;17.39;91.28;101683.72;4933345;29;20822;-72
2022/08/30 06:30:24;;;;;;;10.10;7.90;;;16.90;99.90;;;17.49;90.75;101692.25;4933625;29;20583;-71
2022/08/30 06:32:53;;;;;;;9.07;7.40;;;17.00;99.90;;;17.71;89.63;101695.41;4934305;29;20457;-71
2022/08/30 06:35:22;;;;;;;8.10;7.03;;;17.20;99.90;;;17.63;89.17;101688.31;4933692;29;20446;-71
2022/08/30 06:37:51;;;;;;;8.83;7.10;;;17.30;99.90;;;17.72;89.79;101694.31;4934273;29;20426;-71
2022/08/30 06:40:22;;;;;;;8.70;7.27;;;17.40;99.90;;;17.74;89.01;101693.03;4934064;29;20419;-72
2022/08/30 06:42:51;;;;;;;8.97;7.10;;;17.40;99.90;;;17.92;88.68;101702.25;4935895;29;20448;-72
2022/08/30 06:45:21;;;;;;;11.47;7.70;;;17.50;99.90;;;17.89;88.41;101697.25;4936314;29;20439;-72
2022/08/30 06:47:50;;;;;;;7.83;7.07;;;17.60;99.90;;;17.92;87.53;101707.75;4939595;29;20472;-70
2022/08/30 06:50:20;;;;;;;11.13;7.63;;;17.60;99.90;;;18.06;87.43;101706.50;4936192;29;20490;-71
2022/08/30 06:52:49;;;;;;;9.60;8.10;;;17.70;99.90;;;18.11;86.85;101701.16;4937703;29;20874;-71
2022/08/30 06:55:19;;;;;;;8.70;7.57;;;17.80;99.90;;;18.16;86.93;101693.91;4938236;29;20814;-72
2022/08/30 06:57:50;;;;;;;10.53;8.83;;;17.80;99.90;;;18.13;87.07;101704.50;4935351;29;20427;-72
2022/08/30 07:00:19;;;;;;;11.63;8.67;;;17.80;99.90;;;17.99;88.16;101705.75;4941180;29;20425;-70
2022/08/30 07:02:49;;;;;;;12.43;8.60;;;17.60;99.90;;;18.01;87.84;101707.19;4937362;29;20434;-72
2022/08/30 07:05:21;;;;;;;9.43;7.10;;;17.60;99.90;;;18.06;87.48;101709.22;4934191;29;20438;-72
2022/08/30 07:07:52;;;;;;;10.23;7.10;;;17.70;99.90;;;17.96;88.21;101703.50;4932313;29;20452;-73
2022/08/30 07:10:21;;;;;;;10.70;8.60;;;17.70;99.90;;;18.16;87.60;101701.28;4929560;29;20612;-72
2022/08/30 07:12:51;;;;;;;10.53;8.67;;;17.70;99.90;;;18.24;87.71;101706.47;4930271;29;20525;-71
2022/08/30 07:15:21;;;;;;;13.27;10.00;;;17.80;99.90;;;18.39;86.66;101709.63;4928497;29;20451;-71
2022/08/30 07:20:38;;;;;;;12.20;9.63;;;18.20;99.90;;;18.56;85.24;101713.38;4928831;29;20420;-73
2022/08/30 07:23:10;;;;;;;12.43;8.90;;;18.30;99.90;;;18.63;85.14;101710.53;4937574;29;20420;-72
2022/08/30 07:25:40;;;;;;;11.27;9.40;;;18.20;99.90;;;18.66;84.69;101710.88;4933121;29;20429;-73
2022/08/30 07:28:11;;;;;;;9.77;8.53;;;18.30;99.90;;;18.66;85.00;101721.84;4945017;29;20446;-71
2022/08/30 07:30:42;;;;;;;11.47;9.93;;;18.30;99.90;;;18.89;84.21;101720.19;4928492;29;20445;-71
2022/08/30 07:33:11;;;;;;;12.70;8.87;;;18.40;99.90;;;18.94;84.23;101725.81;4935034;28;20509;-71
2022/08/30 07:35:40;;;;;;;12.27;8.83;;;18.40;99.90;;;19.09;83.00;101724.28;4938757;29;20528;-72
2022/08/30 07:38:13;;;;;;;11.30;8.97;;;18.60;99.90;;;19.01;83.33;101721.06;4928761;29;20451;-72
2022/08/30 07:40:42;;;;;;;10.90;8.17;;;18.70;99.90;;;18.92;83.40;101719.75;4930038;29;20503;-72
2022/08/30 07:43:13;;;;;;;9.97;8.20;;;18.70;99.90;;;18.83;84.63;101726.66;4939618;28;20444;-72
2022/08/30 07:45:42;;;;;;;10.33;8.50;;;18.60;99.90;;;18.52;84.98;101731.31;4935841;29;20905;-73
2022/08/30 07:48:12;;;;;;;8.97;8.07;;;18.50;99.90;;;18.26;86.92;101731.72;4934055;29;20448;-72
2022/08/30 07:50:46;;;;;;;10.10;8.13;;;18.30;99.90;;;18.26;87.94;101737.19;4932008;29;20955;-74
2022/08/30 07:53:15;;;;;;;9.67;8.37;;;18.10;99.90;;;18.37;87.40;101739.16;4937156;29;20424;-72
2022/08/30 07:55:44;;;;;;;8.37;7.00;;;18.10;99.90;;;18.44;87.06;101742.63;4931896;29;20451;-72
2022/08/30 07:58:15;;;;;;;8.20;7.10;;;18.10;99.90;;;18.63;85.61;101744.28;4934667;29;20531;-72
2022/08/30 08:00:45;;;;;;;8.90;7.30;;;18.20;99.90;;;18.89;83.26;101747.63;4940026;29;20490;-73
2022/08/30 08:03:14;;;;;;;9.90;7.97;;;18.40;99.90;;;18.82;82.68;101744.19;4934703;28;20620;-72
2022/08/30 08:05:45;;;;;;;7.27;6.57;;;18.40;99.90;;;18.80;83.04;101740.81;4933187;29;20415;-72
2022/08/30 08:08:14;;;;;;;9.23;7.07;;;18.50;99.90;;;18.49;84.09;101739.19;4931078;29;20672;-70
2022/08/30 08:10:44;;;;;;;7.73;6.93;;;18.40;99.90;;;18.35;84.85;101745.94;4933008;29;21011;-71
2022/08/30 08:13:15;;;;;;;6.93;6.30;;;18.20;99.90;;;18.25;85.55;101747.31;4929342;29;20446;-71
2022/08/30 08:15:44;;;;;;;8.47;6.50;;;18.10;99.90;;;18.52;84.58;101753.25;4936378;29;20500;-71
2022/08/30 08:18:14;;;;;;;6.77;6.17;;;18.20;99.90;;;18.55;83.35;101747.31;4938936;28;20421;-73
2022/08/30 08:20:43;;;;;;;6.83;5.60;;;18.20;99.90;;;18.79;83.08;101752.84;4942049;29;20494;-71
2022/08/30 08:23:12;;;;;;;6.70;5.77;;;18.40;99.90;;;19.06;82.23;101743.13;4938195;29;21013;-73
2022/08/30 08:25:42;;;;;;;5.83;4.70;;;18.60;99.90;;;19.17;79.08;101744.22;4941495;29;20460;-71
2022/08/30 08:28:14;;;;;;;5.40;4.90;;;18.80;99.90;;;19.40;78.68;101745.03;4938811;29;20810;-71
2022/08/30 08:30:44;;;;;;;5.53;5.00;;;19.00;99.90;;;19.79;76.44;101754.44;4930430;29;20956;-72
2022/08/30 08:33:17;;;;;;;4.53;4.13;;;19.30;1.00;;;19.89;76.22;101748.31;4937416;29;20452;-71
2022/08/30 08:35:47;;;;;;;6.43;5.10;;;19.40;1.00;;;20.19;74.31;101759.06;4932391;29;21003;-71
2022/08/30 08:38:16;;;;;;;3.50;3.20;;;19.70;1.00;;;19.79;74.28;101757.19;4938233;29;20491;-74
2022/08/30 08:41:00;;;;;;;4.37;3.90;;;19.60;1.00;;;19.70;75.98;101768.78;4935645;29;20449;-72
2022/08/30 08:43:36;;;;;;;4.83;4.43;;;19.40;1.00;;;19.51;77.42;101766.16;4938105;29;20472;-70
2022/08/30 08:46:16;;;;;;;6.90;4.80;;;19.40;1.00;;;19.16;79.17;101776.31;4931834;29;20452;-71
2022/08/30 08:48:50;;;;;;;5.43;4.00;;;19.10;1.00;;;18.87;79.29;101777.22;4935547;29;20448;-72
2022/08/30 08:54:34;;;;;;;4.77;2.80;;;18.60;1.00;;;18.45;80.87;101768.94;4938258;29;20705;-73
2022/08/30 08:57:04;;;;;;;3.50;3.20;;;18.40;88.40;;;18.47;80.75;101777.78;4943097;29;20934;-72
2022/08/30 08:59:34;;;;;;;3.23;2.10;;;18.30;99.90;;;18.59;79.54;101773.19;4935708;29;20441;-72
2022/08/30 09:02:22;;;;;;;3.73;1.93;;;18.30;1.00;;;18.80;78.50;101781.94;4931551;29;20806;-71
2022/08/30 09:04:58;;;;;;;5.70;1.70;;;18.40;1.00;;;18.63;79.22;101777.16;4931525;29;20490;-71
2022/08/30 09:07:36;;;;;;;2.00;1.80;;;18.40;1.00;;;18.65;79.31;101785.97;4927509;29;20523;-72
2022/08/30 09:10:07;;;;;;;3.10;1.83;;;18.40;1.00;;;18.75;78.48;101790.03;4928955;29;20483;-72
2022/08/30 09:12:36;;;;;;;3.57;1.50;;;18.40;1.00;;;18.84;78.27;101789.47;4931481;29;20485;-72
2022/08/30 09:15:18;;;;;;;5.00;1.47;;;18.50;1.00;;;18.81;77.14;101783.63;4934136;29;20474;-73
2022/08/30 09:17:56;;;;;;;2.90;0.80;;;18.60;1.00;;;18.86;77.23;101786.50;4928507;29;20500;-71
2022/08/30 09:20:31;;;;;;;2.50;1.10;;;18.60;1.00;;;18.90;77.27;101785.81;4930562;29;20778;-71
2022/08/30 09:23:26;;;;;;;1.77;1.03;;;18.60;1.00;;;18.86;76.05;101775.53;4934207;29;20455;-72
2022/08/30 09:25:59;;;;;;;1.43;1.10;;;18.60;1.00;;;19.12;75.07;101775.09;4933524;29;20444;-71
2022/08/30 09:28:31;;;;;;;2.00;1.27;;;18.70;1.00;;;19.12;75.22;101788.81;4931084;29;20777;-71
2022/08/30 09:31:16;;;;;;;2.10;1.73;;;18.80;1.00;;;19.17;74.31;101786.19;4931950;29;20479;-73
2022/08/30 09:33:55;;;;;;;2.43;1.27;;;18.80;99.90;;;19.38;73.93;101795.75;4937098;29;20824;-72
2022/08/30 09:36:30;;;;;;;1.97;1.30;;;19.00;99.90;;;19.27;73.69;101788.31;4939663;29;20453;-71
2022/08/30 09:39:13;;;;;;;1.70;1.40;;;19.00;99.90;;;19.52;72.38;101791.72;4940549;29;20451;-72
2022/08/30 09:41:48;;;;;;;3.63;1.40;;;19.10;99.90;;;19.69;71.38;101789.06;4934419;29;20440;-74
2022/08/30 09:44:21;;;;;;;2.23;1.07;;;19.30;99.90;;;19.95;69.73;101785.78;4932976;29;20971;-73
2022/08/30 09:46:56;;;;;;;1.30;0.97;;;19.50;99.90;;;19.83;68.71;101788.56;4938617;29;20488;-72
2022/08/30 09:49:36;;;;;;;1.60;0.93;;;19.50;99.90;;;19.39;70.29;101798.25;4936848;29;20444;-72
2022/08/30 09:52:25;;;;;;;1.80;1.00;;;19.40;99.90;;;19.46;70.07;101787.19;4933460;29;20467;-72
2022/08/30 09:55:21;;;;;;;1.53;1.03;;;19.30;99.90;;;19.57;70.74;101785.50;4936041;29;20472;-72
2022/08/30 09:58:04;;;;;;;2.33;1.67;;;19.20;99.90;;;19.94;69.49;101784.13;4939774;29;20452;-71
2022/08/30 10:00:43;;;;;;;1.40;0.80;;;19.50;99.90;;;20.18;68.00;101784.91;4932773;29;20456;-72
2022/08/30 10:03:28;;;;;;;2.03;1.47;;;19.70;99.90;;;20.44;67.27;101783.50;4937882;29;20444;-73
2022/08/30 10:06:25;;;;;;;1.70;0.97;;;19.90;99.90;;;20.63;66.11;101783.03;4935433;29;20452;-72
2022/08/30 10:09:32;;;;;;;1.90;1.43;;;20.10;99.90;;;20.95;65.33;101780.59;4938552;29;20757;-72
2022/08/30 10:12:15;;;;;;;1.43;1.10;;;20.30;99.90;;;21.38;62.99;101784.59;4938718;29;20460;-72
2022/08/30 10:15:07;;;;;;;2.93;1.10;;;20.60;99.90;;;21.54;60.43;101776.28;4933225;29;20668;-71
2022/08/30 10:17:53;;;;;;;1.83;1.00;;;21.00;99.90;;;21.74;60.80;101778.50;4945341;28;20456;-73
2022/08/30 10:20:33;;;;;;;2.07;0.80;;;21.10;99.90;;;21.72;57.34;101769.66;4932383;29;20436;-73
2022/08/30 10:23:12;;;;;;;1.67;0.70;;;21.20;99.90;;;21.71;56.21;101784.53;4928346;29;20946;-72
2022/08/30 10:25:51;;;;;;;1.50;0.70;;;21.20;98.10;;;21.67;56.67;101781.47;4931695;29;20446;-72
2022/08/30 10:28:31;;;;;;;2.37;0.73;;;21.20;94.80;;;21.46;57.05;101778.66;4932916;29;20419;-72
2022/08/30 10:31:07;;;;;;;4.00;0.80;;;21.10;93.20;;;21.39;57.89;101775.25;4932273;29;20954;-72
2022/08/30 10:33:42;;;;;;;1.70;0.60;;;21.10;92.50;;;21.11;58.00;101765.97;4934059;29;20511;-72
2022/08/30 10:36:15;;;;;;;1.30;0.80;;;20.90;90.80;;;21.28;57.67;101765.16;4932939;29;20436;-73